createdAt,value
2018-08-11T00:00:28.829Z,15.80
2018-08-11T00:02:31.003Z,15.90
2018-08-11T00:04:33.165Z,15.90
2018-08-11T00:06:35.333Z,15.80
2018-08-11T00:08:37.481Z,15.80
2018-08-11T00:10:39.645Z,15.70
2018-08-11T00:12:41.825Z,15.80
2018-08-11T00:14:44.089Z,15.70
2018-08-11T00:16:46.252Z,15.70
2018-08-11T00:18:48.422Z,15.70
2018-08-11T00:20:50.917Z,15.70
2018-08-11T00:22:53.085Z,15.80
2018-08-11T00:24:55.271Z,15.70
2018-08-11T00:26:57.470Z,15.70
2018-08-11T00:28:59.640Z,15.70
2018-08-11T00:31:01.836Z,15.70
2018-08-11T00:33:04.023Z,15.70
2018-08-11T00:35:07.967Z,15.70
2018-08-11T00:37:10.163Z,15.70
2018-08-11T00:39:12.705Z,15.70
2018-08-11T00:41:14.926Z,15.60
2018-08-11T00:43:17.281Z,15.60
2018-08-11T00:45:19.495Z,15.70
2018-08-11T00:47:21.689Z,15.70
2018-08-11T00:49:23.899Z,15.60
2018-08-11T00:51:26.126Z,15.50
2018-08-11T00:53:28.267Z,15.50
2018-08-11T00:55:30.499Z,15.50
2018-08-11T00:57:32.645Z,15.50
2018-08-11T00:59:34.808Z,15.50
2018-08-11T01:01:36.976Z,15.50
2018-08-11T01:03:39.120Z,15.50
2018-08-11T01:05:41.288Z,15.50
2018-08-11T01:07:44.005Z,15.60
2018-08-11T01:09:46.125Z,15.60
2018-08-11T01:11:48.287Z,15.60
2018-08-11T01:13:50.437Z,15.70
2018-08-11T01:15:52.600Z,15.70
2018-08-11T01:17:54.793Z,15.70
2018-08-11T01:19:56.927Z,15.60
2018-08-11T01:21:59.207Z,15.50
2018-08-11T01:24:01.752Z,15.50
2018-08-11T01:26:03.890Z,15.50
2018-08-11T01:28:06.045Z,15.60
2018-08-11T01:30:14.289Z,15.40
2018-08-11T01:32:16.413Z,15.50
2018-08-11T01:34:18.538Z,15.70
2018-08-11T01:36:21.066Z,15.50
2018-08-11T01:38:23.210Z,15.50
2018-08-11T01:40:25.346Z,15.40
2018-08-11T01:42:27.522Z,15.40
2018-08-11T01:44:29.683Z,15.40
2018-08-11T01:46:31.826Z,15.60
2018-08-11T01:48:34.046Z,15.50
2018-08-11T01:50:36.173Z,15.70
2018-08-11T01:52:39.358Z,15.60
2018-08-11T01:54:41.585Z,15.40
2018-08-11T01:56:43.753Z,15.40
2018-08-11T01:58:45.898Z,15.50
2018-08-11T02:00:48.091Z,15.40
2018-08-11T02:02:50.227Z,15.50
2018-08-11T02:04:52.462Z,15.50
2018-08-11T02:06:54.674Z,15.50
2018-08-11T02:08:56.821Z,15.50
2018-08-11T02:10:58.979Z,15.50
2018-08-11T02:13:01.110Z,15.50
2018-08-11T02:15:05.287Z,15.60
2018-08-11T02:17:14.278Z,15.40
2018-08-11T02:19:16.402Z,15.40
2018-08-11T02:21:18.519Z,15.50
2018-08-11T02:23:20.689Z,15.50
2018-08-11T02:25:22.846Z,15.60
2018-08-11T02:27:25.014Z,15.50
2018-08-11T02:29:27.277Z,15.50
2018-08-11T02:31:29.419Z,15.40
2018-08-11T02:33:31.585Z,15.60
2018-08-11T02:35:33.718Z,15.70
2018-08-11T02:37:35.874Z,15.70
2018-08-11T02:39:38.037Z,15.70
2018-08-11T02:41:40.197Z,15.80
2018-08-11T02:43:42.421Z,15.80
2018-08-11T02:45:44.579Z,15.70
2018-08-11T02:47:46.975Z,15.70
2018-08-11T02:49:49.223Z,15.70
2018-08-11T02:51:51.995Z,15.70
2018-08-11T02:53:54.141Z,15.70
2018-08-11T02:55:56.279Z,15.80
2018-08-11T02:57:58.390Z,15.90
2018-08-11T03:00:00.566Z,15.90
2018-08-11T03:02:02.739Z,15.90
2018-08-11T03:04:04.888Z,16.00
2018-08-11T03:06:07.027Z,15.90
2018-08-11T03:08:09.165Z,16.00
2018-08-11T03:10:11.473Z,16.00
2018-08-11T03:12:13.599Z,16.10
2018-08-11T03:14:15.850Z,16.20
2018-08-11T03:16:18.070Z,16.10
2018-08-11T03:18:20.230Z,16.10
2018-08-11T03:20:22.379Z,16.20
2018-08-11T03:22:24.493Z,16.20
2018-08-11T03:24:26.623Z,16.20
2018-08-11T03:26:28.796Z,16.10
2018-08-11T03:28:30.954Z,16.10
2018-08-11T03:30:33.114Z,16.10
2018-08-11T03:32:35.422Z,16.10
2018-08-11T03:34:37.545Z,16.20
2018-08-11T03:36:39.729Z,16.10
2018-08-11T03:38:41.861Z,16.00
2018-08-11T03:40:44.002Z,16.00
2018-08-11T03:42:46.130Z,16.00
2018-08-11T03:44:48.619Z,16.10
2018-08-11T03:46:50.766Z,16.00
2018-08-11T03:48:52.867Z,15.90
2018-08-11T03:50:55.091Z,15.90
2018-08-11T03:52:57.245Z,15.90
2018-08-11T03:54:59.369Z,15.90
2018-08-11T03:57:01.497Z,16.00
2018-08-11T03:59:03.739Z,16.00
2018-08-11T04:01:05.903Z,15.90
2018-08-11T04:03:08.030Z,15.90
2018-08-11T04:05:10.180Z,15.90
2018-08-11T04:07:12.299Z,15.90
2018-08-11T04:09:14.406Z,15.90
2018-08-11T04:11:16.505Z,15.90
2018-08-11T04:13:18.618Z,16.00
2018-08-11T04:15:20.811Z,15.90
2018-08-11T04:17:28.409Z,16.00
2018-08-11T04:19:30.605Z,15.90
2018-08-11T04:21:32.950Z,15.70
2018-08-11T04:23:35.114Z,15.50
2018-08-11T04:25:37.254Z,15.50
2018-08-11T04:27:39.465Z,15.40
2018-08-11T04:29:41.628Z,15.30
2018-08-11T04:31:43.742Z,15.20
2018-08-11T04:33:45.906Z,15.10
2018-08-11T04:35:48.054Z,14.90
2018-08-11T04:37:50.281Z,14.70
2018-08-11T07:18:59.590Z,14.80
2018-08-11T07:23:04.078Z,14.50
2018-08-11T07:25:07.126Z,14.60
2018-08-11T07:29:18.357Z,14.60
2018-08-11T07:31:20.531Z,14.80
2018-08-11T07:33:22.687Z,14.90
2018-08-11T07:35:24.810Z,15.10
2018-08-11T07:37:26.966Z,15.20
2018-08-11T07:39:29.115Z,15.30
2018-08-11T07:41:31.278Z,15.20
2018-08-11T07:43:33.642Z,15.20
2018-08-11T07:45:35.846Z,15.30
2018-08-11T07:47:38.043Z,15.40
2018-08-11T07:49:40.342Z,15.50
2018-08-11T07:51:42.494Z,15.60
2018-08-11T07:53:44.648Z,15.80
2018-08-11T07:55:46.803Z,15.70
2018-08-11T07:59:57.983Z,16.10
2018-08-11T08:02:00.248Z,16.00
2018-08-11T08:04:02.415Z,15.90
2018-08-11T08:06:04.557Z,16.00
2018-08-11T08:08:06.764Z,16.20
2018-08-11T08:10:08.861Z,16.50
2018-08-11T08:12:11.037Z,16.50
2018-08-11T08:14:13.145Z,16.40
2018-08-11T08:16:15.282Z,16.40
2018-08-11T08:18:17.453Z,16.40
2018-08-11T08:20:19.617Z,16.50
2018-08-11T08:22:21.833Z,16.50
2018-08-11T08:24:23.933Z,16.50
2018-08-11T08:26:26.261Z,16.60
2018-08-11T08:28:28.214Z,16.40
2018-08-11T08:30:30.421Z,16.80
2018-08-11T08:32:32.570Z,16.70
2018-08-11T08:34:34.697Z,16.70
2018-08-11T08:36:36.830Z,16.80
2018-08-11T08:38:39.034Z,16.90
2018-08-11T08:40:41.158Z,17.10
2018-08-11T08:42:43.302Z,17.00
2018-08-11T08:44:45.449Z,17.10
2018-08-11T08:46:47.622Z,17.20
2018-08-11T08:48:49.772Z,17.00
2018-08-11T08:50:51.898Z,17.00
2018-08-11T08:52:54.066Z,17.30
2018-08-11T08:54:56.246Z,17.20
2018-08-11T08:56:58.405Z,17.30
2018-08-11T08:59:00.579Z,17.10
2018-08-11T09:01:02.855Z,17.00
2018-08-11T09:03:05.037Z,17.10
2018-08-11T09:05:07.311Z,17.20
2018-08-11T09:07:09.431Z,17.10
2018-08-11T09:09:12.088Z,17.40
2018-08-11T09:11:14.244Z,17.70
2018-08-11T09:13:16.393Z,17.80
2018-08-11T09:15:18.526Z,17.70
2018-08-11T09:17:20.662Z,17.50
2018-08-11T09:19:22.864Z,17.60
2018-08-11T09:21:25.016Z,17.50
2018-08-11T09:23:27.170Z,17.50
2018-08-11T09:25:29.314Z,17.50
2018-08-11T09:27:31.456Z,17.30
2018-08-11T09:29:33.616Z,17.20
2018-08-11T09:31:35.784Z,17.00
2018-08-11T09:33:37.911Z,17.00
2018-08-11T09:35:40.063Z,16.80
2018-08-11T09:37:42.219Z,16.80
2018-08-11T09:39:44.351Z,17.00
2018-08-11T09:41:46.506Z,17.00
2018-08-11T09:43:48.670Z,17.10
2018-08-11T09:45:50.913Z,17.20
2018-08-11T09:47:53.014Z,17.10
2018-08-11T09:49:55.346Z,17.30
2018-08-11T09:53:59.655Z,16.30
2018-08-11T10:14:28.529Z,15.40
2018-08-11T10:18:39.653Z,15.60
2018-08-11T10:20:41.918Z,16.00
2018-08-11T10:22:44.059Z,16.20
2018-08-11T10:24:46.207Z,16.40
2018-08-11T10:26:48.451Z,16.80
2018-08-11T10:28:50.579Z,16.80
2018-08-11T10:30:52.713Z,16.70
2018-08-11T10:32:55.055Z,16.70
2018-08-11T10:34:57.157Z,16.60
2018-08-11T10:36:59.361Z,16.50
2018-08-11T10:39:02.289Z,16.30
2018-08-11T10:45:08.990Z,15.90
2018-08-11T10:51:15.825Z,16.40
2018-08-11T10:53:17.938Z,16.40
2018-08-11T11:01:28.621Z,16.80
2018-08-11T11:03:30.958Z,16.70
2018-08-11T11:05:33.138Z,16.80
2018-08-11T11:09:37.497Z,16.80
2018-08-11T11:11:39.682Z,16.80
2018-08-11T11:13:41.828Z,17.00
2018-08-11T11:15:43.948Z,17.00
2018-08-11T11:19:48.466Z,16.60
2018-08-11T11:21:50.589Z,16.50
2018-08-11T11:23:52.738Z,16.80
2018-08-11T11:25:54.832Z,17.00
2018-08-11T11:27:57.162Z,17.00
2018-08-11T11:29:59.306Z,17.00
2018-08-11T11:32:01.516Z,17.00
2018-08-11T11:34:04.015Z,17.10
2018-08-11T11:36:06.196Z,17.00
2018-08-11T11:38:08.363Z,17.00
2018-08-11T11:40:10.562Z,17.30
2018-08-11T11:42:12.702Z,17.70
2018-08-11T11:44:14.829Z,17.70
2018-08-11T11:46:17.013Z,17.90
2018-08-11T11:48:19.202Z,18.20
2018-08-11T11:50:21.392Z,17.70
2018-08-11T11:52:23.568Z,17.20
2018-08-11T11:54:25.689Z,17.10
2018-08-11T11:56:27.905Z,17.20
2018-08-11T11:58:30.225Z,16.80
2018-08-11T12:24:58.521Z,16.50
2018-08-11T12:27:00.693Z,16.60
2018-08-11T12:29:02.900Z,17.10
2018-08-11T12:31:05.340Z,17.10
2018-08-11T12:33:07.494Z,16.70
2018-08-11T12:35:09.664Z,16.60
2018-08-11T12:37:11.834Z,17.00
2018-08-11T12:39:13.998Z,17.30
2018-08-11T12:41:16.177Z,17.20
2018-08-11T12:43:18.322Z,17.20
2018-08-11T12:45:20.490Z,17.30
2018-08-11T12:47:22.644Z,17.30
2018-08-11T12:49:24.767Z,17.20
2018-08-11T12:51:26.931Z,17.90
2018-08-11T12:53:29.083Z,19.00
2018-08-11T12:55:31.177Z,19.20
2018-08-11T12:57:33.321Z,18.60
2018-08-11T12:59:35.471Z,17.60
2018-08-11T13:01:37.704Z,17.20
2018-08-11T13:03:40.226Z,17.40
2018-08-11T13:05:42.390Z,17.30
2018-08-11T13:07:44.538Z,17.60
2018-08-11T13:09:46.704Z,18.40
2018-08-11T13:11:48.845Z,19.00
2018-08-11T13:13:50.974Z,18.70
2018-08-11T13:15:53.146Z,18.80
2018-08-11T13:17:55.306Z,19.30
2018-08-11T13:19:57.471Z,20.00
2018-08-11T13:21:59.654Z,19.90
2018-08-11T13:24:01.804Z,20.40
2018-08-11T13:26:03.925Z,20.20
2018-08-11T13:28:06.152Z,20.00
2018-08-11T13:30:08.314Z,20.70
2018-08-11T13:32:10.450Z,20.90
2018-08-11T13:34:12.767Z,20.10
2018-08-11T13:36:14.898Z,19.10
2018-08-11T13:38:18.001Z,20.30
2018-08-11T13:40:20.213Z,20.50
2018-08-11T13:42:22.374Z,21.00
2018-08-11T13:44:24.505Z,20.70
2018-08-11T13:46:26.626Z,20.30
2018-08-11T13:48:28.794Z,19.40
2018-08-11T13:50:30.949Z,18.80
2018-08-11T13:52:33.068Z,18.50
2018-08-11T13:54:35.171Z,18.60
2018-08-11T13:56:38.133Z,18.40
2018-08-11T13:58:40.313Z,17.50
2018-08-11T14:00:42.478Z,17.00
2018-08-11T14:02:44.666Z,17.00
2018-08-11T14:04:46.814Z,18.00
2018-08-11T14:06:48.994Z,18.70
2018-08-11T14:08:51.151Z,19.30
2018-08-11T14:10:53.290Z,19.10
2018-08-11T14:12:55.522Z,18.30
2018-08-11T14:14:58.056Z,17.70
2018-08-11T14:17:00.153Z,18.50
2018-08-11T14:19:02.323Z,18.50
2018-08-11T14:21:04.520Z,17.90
2018-08-11T14:23:06.691Z,17.50
2018-08-11T14:27:11.094Z,16.40
2018-08-11T14:31:15.514Z,16.30
2018-08-11T14:33:17.678Z,16.60
2018-08-11T14:35:19.838Z,16.40
2018-08-11T15:01:48.279Z,16.50
2018-08-11T15:03:50.437Z,17.10
2018-08-11T15:05:52.613Z,18.80
2018-08-11T15:07:54.798Z,18.90
2018-08-11T15:09:56.981Z,19.00
2018-08-11T15:11:59.090Z,18.10
2018-08-11T15:14:01.254Z,17.80
2018-08-11T15:16:03.879Z,18.00
2018-08-11T15:18:05.968Z,18.40
2018-08-11T15:20:08.668Z,18.30
2018-08-11T15:22:10.797Z,18.30
2018-08-11T15:24:12.889Z,18.40
2018-08-11T15:26:15.039Z,18.30
2018-08-11T15:28:17.189Z,18.00
2018-08-11T15:30:19.341Z,18.10
2018-08-11T15:32:21.498Z,18.20
2018-08-11T15:34:23.625Z,18.30
2018-08-11T15:36:25.753Z,18.50
2018-08-11T15:38:27.918Z,18.40
2018-08-11T15:40:30.042Z,18.50
2018-08-11T15:42:32.362Z,18.50
2018-08-11T15:44:34.471Z,18.20
2018-08-11T15:46:36.941Z,18.30
2018-08-11T15:48:39.096Z,18.30
2018-08-11T15:50:41.242Z,18.10
2018-08-11T15:52:43.435Z,18.30
2018-08-11T15:54:45.620Z,18.00
2018-08-11T15:56:47.770Z,18.00
2018-08-11T15:58:49.941Z,17.90
2018-08-11T16:00:52.331Z,18.10
2018-08-11T16:02:54.458Z,18.10
2018-08-11T16:04:56.610Z,18.10
2018-08-11T16:06:58.774Z,18.10
2018-08-11T16:09:00.913Z,18.20
2018-08-11T16:11:03.087Z,18.10
2018-08-11T16:13:05.218Z,18.20
2018-08-11T16:15:07.358Z,18.20
2018-08-11T16:17:09.519Z,18.10
2018-08-11T16:19:11.726Z,18.10
2018-08-11T16:21:13.859Z,18.40
2018-08-11T16:23:16.026Z,18.30
2018-08-11T16:25:18.198Z,18.30
2018-08-11T16:27:20.349Z,18.30
2018-08-11T16:29:22.543Z,18.20
2018-08-11T16:31:24.896Z,18.20
2018-08-11T16:33:27.067Z,18.10
2018-08-11T16:35:29.210Z,18.10
2018-08-11T16:37:31.353Z,18.00
2018-08-11T16:39:33.507Z,17.90
2018-08-11T16:41:36.074Z,17.90
2018-08-11T16:43:38.315Z,17.90
2018-08-11T16:45:40.468Z,18.00
2018-08-11T16:47:42.615Z,18.00
2018-08-11T16:49:44.742Z,17.80
2018-08-11T16:51:46.915Z,17.80
2018-08-11T16:53:49.129Z,17.90
2018-08-11T16:55:51.284Z,18.00
2018-08-11T16:57:53.439Z,17.90
2018-08-11T16:59:55.589Z,17.80
2018-08-11T17:01:57.736Z,17.80
2018-08-11T17:03:59.876Z,17.70
2018-08-11T17:06:01.994Z,17.70
2018-08-11T17:08:04.143Z,17.70
2018-08-11T17:10:07.281Z,17.70
2018-08-11T17:12:09.403Z,17.90
2018-08-11T17:14:11.531Z,17.90
2018-08-11T17:16:13.695Z,18.00
2018-08-11T17:18:15.847Z,18.00
2018-08-11T17:20:18.009Z,17.90
2018-08-11T17:22:20.290Z,17.80
2018-08-11T17:24:22.409Z,17.90
2018-08-11T17:26:24.613Z,18.00
2018-08-11T17:28:26.802Z,18.10
2018-08-11T17:30:28.938Z,18.10
2018-08-11T17:32:31.242Z,18.10
2018-08-11T17:34:33.279Z,18.00
2018-08-11T17:36:35.438Z,17.90
2018-08-11T17:38:37.648Z,17.90
2018-08-11T17:40:39.732Z,17.90
2018-08-11T17:42:41.841Z,18.00
2018-08-11T17:44:51.134Z,17.90
2018-08-11T17:46:53.289Z,17.90
2018-08-11T17:48:55.477Z,18.00
2018-08-11T17:50:57.639Z,17.90
2018-08-11T17:52:59.874Z,17.90
2018-08-11T17:55:02.034Z,18.00
2018-08-11T17:57:04.343Z,17.90
2018-08-11T17:59:06.503Z,17.90
2018-08-11T18:01:08.670Z,18.00
2018-08-11T18:03:10.978Z,17.90
2018-08-11T18:05:13.101Z,17.90
2018-08-11T18:07:15.271Z,17.90
2018-08-11T18:09:17.430Z,17.80
2018-08-11T18:11:19.567Z,17.90
2018-08-11T18:13:21.689Z,17.90
2018-08-11T18:15:24.137Z,17.80
2018-08-11T18:17:26.280Z,17.70
2018-08-11T18:19:28.468Z,17.70
2018-08-11T18:21:30.620Z,17.60
2018-08-11T18:23:32.778Z,17.40
2018-08-11T18:25:35.093Z,17.40
2018-08-11T18:27:37.232Z,17.40
2018-08-11T18:29:39.404Z,17.30
2018-08-11T18:31:41.558Z,17.30
2018-08-11T18:33:43.716Z,17.40
2018-08-11T18:35:45.890Z,17.40
2018-08-11T18:37:48.056Z,17.40
2018-08-11T18:39:50.194Z,17.20
2018-08-11T18:41:52.381Z,17.30
2018-08-11T18:43:54.532Z,17.30
2018-08-11T18:45:56.690Z,17.20
2018-08-11T18:47:58.841Z,17.10
2018-08-11T18:52:09.962Z,16.90
2018-08-11T18:54:12.311Z,16.70
2018-08-11T18:56:14.605Z,16.70
2018-08-11T18:58:16.767Z,16.50
2018-08-11T19:00:18.990Z,16.60
2018-08-11T19:02:21.270Z,16.40
2018-08-11T19:04:24.803Z,16.30
2018-08-11T19:06:27.485Z,16.30
2018-08-11T19:08:30.014Z,16.30
